createdAt,value
2024-02-08T00:00:21.690Z,3.84
2024-02-08T00:03:14.942Z,3.78
2024-02-08T00:05:46.922Z,3.73
2024-02-08T00:08:18.843Z,3.73
2024-02-08T00:10:50.756Z,3.73
2024-02-08T00:13:22.688Z,3.70
2024-02-08T00:15:55.714Z,3.67
2024-02-08T00:18:28.645Z,3.63
2024-02-08T00:21:00.508Z,3.59
2024-02-08T00:23:32.346Z,3.54
2024-02-08T00:26:04.234Z,3.50
2024-02-08T00:28:36.261Z,3.45
2024-02-08T00:31:08.497Z,3.41
2024-02-08T00:33:40.335Z,3.39
2024-02-08T00:36:12.604Z,3.39
2024-02-08T00:38:45.199Z,3.42
2024-02-08T00:41:17.022Z,3.44
2024-02-08T00:43:48.849Z,3.46
2024-02-08T00:46:20.804Z,3.47
2024-02-08T00:48:55.426Z,3.49
2024-02-08T00:51:27.328Z,3.52
2024-02-08T00:54:00.694Z,3.53
2024-02-08T00:56:32.534Z,3.57
2024-02-08T00:59:04.475Z,3.59
2024-02-08T01:01:38.171Z,3.62
2024-02-08T01:04:12.132Z,3.61
2024-02-08T01:06:44.254Z,3.61
2024-02-08T01:09:16.237Z,3.61
2024-02-08T01:11:48.045Z,3.61
2024-02-08T01:14:22.847Z,3.61
2024-02-08T01:16:55.711Z,3.61
2024-02-08T01:19:27.650Z,3.62
2024-02-08T01:22:00.055Z,3.62
2024-02-08T01:24:31.838Z,3.62
2024-02-08T01:27:05.353Z,3.63
2024-02-08T01:29:37.185Z,3.63
2024-02-08T01:32:09.406Z,3.62
2024-02-08T01:34:42.288Z,3.61
2024-02-08T01:37:16.085Z,3.62
2024-02-08T01:39:48.057Z,3.62
2024-02-08T01:42:20.465Z,3.62
2024-02-08T01:45:16.161Z,3.62
2024-02-08T01:47:49.311Z,3.59
2024-02-08T01:50:21.548Z,3.58
2024-02-08T01:52:53.682Z,3.59
2024-02-08T01:55:25.509Z,3.60
2024-02-08T01:57:57.374Z,3.61
2024-02-08T02:00:31.766Z,3.61
2024-02-08T02:03:06.667Z,3.61
2024-02-08T02:05:42.888Z,3.61
2024-02-08T02:08:17.681Z,3.63
2024-02-08T02:10:56.092Z,3.65
2024-02-08T02:13:29.232Z,3.67
2024-02-08T02:16:01.165Z,3.67
2024-02-08T02:18:33.708Z,3.67
2024-02-08T02:21:05.569Z,3.69
2024-02-08T02:23:37.750Z,3.71
2024-02-08T02:26:10.165Z,3.70
2024-02-08T02:28:43.766Z,3.70
2024-02-08T02:31:18.328Z,3.72
2024-02-08T02:33:50.325Z,3.72
2024-02-08T02:36:22.991Z,3.70
2024-02-08T02:38:54.801Z,3.66
2024-02-08T02:41:29.214Z,3.65
2024-02-08T02:44:01.087Z,3.65
2024-02-08T02:46:33.210Z,3.65
2024-02-08T02:49:05.836Z,3.65
2024-02-08T02:51:37.921Z,3.65
2024-02-08T02:54:09.696Z,3.67
2024-02-08T02:56:47.707Z,3.69
2024-02-08T02:59:19.768Z,3.70
2024-02-08T03:01:51.630Z,3.69
2024-02-08T03:04:23.774Z,3.70
2024-02-08T03:06:55.567Z,3.69
2024-02-08T03:09:29.502Z,3.67
2024-02-08T03:12:01.913Z,3.65
2024-02-08T03:14:35.238Z,3.62
2024-02-08T03:17:08.079Z,3.58
2024-02-08T03:19:40.094Z,3.60
2024-02-08T03:22:11.891Z,3.60
2024-02-08T03:24:45.560Z,3.61
2024-02-08T03:27:22.881Z,3.62
2024-02-08T03:29:55.197Z,3.62
2024-02-08T03:32:28.952Z,3.63
2024-02-08T03:35:00.952Z,3.63
2024-02-08T03:37:33.313Z,3.62
2024-02-08T03:40:06.146Z,3.63
2024-02-08T03:42:38.075Z,3.65
2024-02-08T03:45:14.605Z,3.65
2024-02-08T03:47:47.164Z,3.64
2024-02-08T03:50:19.436Z,3.64
2024-02-08T03:52:51.286Z,3.65
2024-02-08T03:55:27.644Z,3.64
2024-02-08T03:58:01.536Z,3.63
2024-02-08T04:00:34.745Z,3.64
2024-02-08T04:03:07.569Z,3.66
2024-02-08T04:05:44.030Z,3.67
2024-02-08T04:08:44.588Z,3.68
2024-02-08T04:11:33.828Z,3.69
2024-02-08T04:14:22.952Z,3.69
2024-02-08T04:17:12.444Z,3.71
2024-02-08T04:20:01.917Z,3.73
2024-02-08T04:22:51.326Z,3.74
2024-02-08T04:25:40.435Z,3.75
2024-02-08T04:28:29.788Z,3.72
2024-02-08T04:31:18.715Z,3.69
2024-02-08T04:34:08.112Z,3.68
2024-02-08T04:36:57.218Z,3.67
2024-02-08T04:39:46.561Z,3.67
2024-02-08T04:42:35.892Z,3.67
2024-02-08T04:45:26.340Z,3.65
2024-02-08T04:48:15.887Z,3.64
2024-02-08T04:51:05.552Z,3.64
2024-02-08T04:53:41.045Z,3.64
2024-02-08T04:56:13.782Z,3.65
2024-02-08T04:59:08.168Z,3.66
2024-02-08T05:01:39.491Z,3.65
2024-02-08T05:04:11.632Z,3.66
2024-02-08T05:06:46.411Z,3.65
2024-02-08T05:09:20.958Z,3.66
2024-02-08T05:11:53.456Z,3.66
2024-02-08T05:14:26.604Z,3.66
2024-02-08T05:16:59.838Z,3.66
2024-02-08T05:19:31.930Z,3.65
2024-02-08T05:22:04.083Z,3.66
2024-02-08T05:24:35.874Z,3.67
2024-02-08T05:27:07.801Z,3.68
2024-02-08T05:29:42.412Z,3.69
2024-02-08T05:32:14.230Z,3.71
2024-02-08T05:34:46.038Z,3.72
2024-02-08T05:37:18.021Z,3.71
2024-02-08T05:39:49.948Z,3.70
2024-02-08T05:42:22.750Z,3.72
2024-02-08T05:45:14.100Z,3.71
2024-02-08T05:47:46.650Z,3.71
2024-02-08T05:50:23.776Z,3.73
2024-02-08T05:52:58.227Z,3.73
2024-02-08T05:55:34.667Z,3.74
2024-02-08T05:58:08.179Z,3.74
2024-02-08T06:00:47.284Z,3.74
2024-02-08T06:03:28.887Z,3.74
2024-02-08T06:06:08.636Z,3.75
2024-02-08T06:08:42.891Z,3.77
2024-02-08T06:11:21.090Z,3.78
2024-02-08T06:13:56.316Z,3.78
2024-02-08T06:16:30.597Z,3.79
2024-02-08T06:19:06.124Z,3.79
2024-02-08T06:21:44.603Z,3.81
2024-02-08T06:24:33.710Z,3.84
2024-02-08T06:27:14.809Z,3.85
2024-02-08T06:29:48.496Z,3.85
2024-02-08T06:32:44.730Z,3.84
2024-02-08T06:35:21.697Z,3.80
2024-02-08T06:38:01.620Z,3.75
2024-02-08T06:40:52.423Z,3.72
2024-02-08T06:43:46.824Z,3.69
2024-02-08T06:46:29.428Z,3.64
2024-02-08T06:49:18.844Z,3.65
2024-02-08T06:52:10.374Z,3.64
2024-02-08T06:54:59.833Z,3.65
2024-02-08T06:57:49.161Z,3.62
2024-02-08T07:00:38.788Z,3.59
2024-02-08T07:03:28.126Z,3.57
2024-02-08T07:06:18.083Z,3.57
2024-02-08T07:09:07.425Z,3.60
2024-02-08T07:11:56.915Z,3.61
2024-02-08T07:14:45.931Z,3.62
2024-02-08T07:17:35.280Z,3.64
2024-02-08T07:20:25.992Z,3.63
2024-02-08T07:23:29.523Z,3.58
2024-02-08T07:26:30.121Z,3.60
2024-02-08T07:29:19.635Z,3.64
2024-02-08T07:32:08.100Z,3.67
2024-02-08T07:34:57.416Z,3.71
2024-02-08T07:37:30.935Z,3.74
2024-02-08T07:40:03.533Z,3.81
2024-02-08T07:42:42.850Z,3.89
2024-02-08T07:45:15.642Z,3.96
2024-02-08T07:47:58.764Z,4.01
2024-02-08T07:50:37.071Z,4.06
2024-02-08T07:53:20.869Z,4.09
2024-02-08T07:55:59.296Z,4.15
2024-02-08T07:58:31.173Z,4.21
2024-02-08T08:01:04.048Z,4.27
2024-02-08T08:03:36.694Z,4.40
2024-02-08T08:06:09.164Z,4.52
2024-02-08T08:08:43.677Z,4.60
2024-02-08T08:11:18.297Z,4.67
2024-02-08T08:14:08.403Z,4.68
2024-02-08T08:17:00.411Z,4.78
2024-02-08T08:19:40.234Z,4.80
2024-02-08T08:22:29.899Z,4.78
2024-02-08T08:25:29.733Z,4.74
2024-02-08T08:28:31.531Z,4.67
2024-02-08T08:31:18.466Z,4.64
2024-02-08T08:34:22.298Z,4.60
2024-02-08T08:37:04.152Z,4.64
2024-02-08T08:40:21.977Z,4.65
2024-02-08T08:42:56.166Z,4.71
2024-02-08T08:45:28.045Z,4.77
2024-02-08T08:48:02.535Z,4.80
2024-02-08T08:50:34.613Z,4.79
2024-02-08T08:53:18.099Z,4.80
2024-02-08T08:55:51.932Z,4.83
2024-02-08T08:58:28.874Z,5.09
2024-02-08T09:01:13.069Z,5.32
2024-02-08T09:03:46.271Z,5.67
2024-02-08T09:06:18.261Z,5.82
2024-02-08T09:08:56.356Z,5.81
2024-02-08T09:11:29.269Z,5.76
2024-02-08T09:14:11.548Z,5.86
2024-02-08T09:16:53.500Z,5.98
2024-02-08T09:19:28.957Z,6.07
2024-02-08T09:22:03.551Z,6.22
2024-02-08T09:24:43.620Z,6.39
2024-02-08T09:27:18.269Z,6.46
2024-02-08T09:29:57.493Z,6.55
2024-02-08T09:32:45.756Z,6.64
2024-02-08T09:35:18.334Z,6.66
2024-02-08T09:37:50.223Z,6.74
2024-02-08T09:40:43.803Z,6.70
2024-02-08T09:43:20.224Z,6.57
2024-02-08T09:46:07.146Z,6.37
2024-02-08T09:48:48.206Z,6.24
2024-02-08T09:51:25.354Z,6.19
2024-02-08T09:54:16.137Z,6.23
2024-02-08T09:56:52.928Z,6.19
2024-02-08T09:59:52.157Z,6.11
2024-02-08T10:02:34.007Z,6.02
2024-02-08T10:05:41.426Z,6.11
2024-02-08T10:08:28.643Z,6.19
2024-02-08T10:11:24.582Z,6.16
2024-02-08T10:14:04.176Z,6.13
2024-02-08T10:16:45.044Z,6.04
2024-02-08T10:19:29.557Z,6.02
2024-02-08T10:22:12.187Z,6.07
2024-02-08T10:25:06.852Z,6.09
2024-02-08T10:27:39.139Z,6.10
2024-02-08T10:30:13.786Z,6.17
2024-02-08T10:32:46.522Z,6.20
2024-02-08T10:35:21.919Z,6.22
2024-02-08T10:38:09.034Z,6.18
2024-02-08T10:40:41.779Z,6.13
2024-02-08T10:43:19.440Z,6.20
2024-02-08T10:45:55.212Z,6.28
2024-02-08T10:48:30.356Z,6.37
2024-02-08T10:51:04.395Z,6.39
2024-02-08T10:53:49.772Z,6.36
2024-02-08T10:56:41.970Z,6.28
2024-02-08T10:59:37.763Z,6.08
2024-02-08T11:02:32.028Z,6.00
2024-02-08T11:05:43.082Z,5.96
2024-02-08T11:08:25.422Z,5.91
2024-02-08T11:11:04.910Z,5.84
2024-02-08T11:13:39.402Z,5.73
2024-02-08T11:16:22.198Z,5.73
2024-02-08T11:18:56.587Z,5.81
2024-02-08T11:21:45.124Z,5.90
2024-02-08T11:24:39.943Z,6.03
2024-02-08T11:27:14.568Z,6.05
2024-02-08T11:29:47.612Z,6.01
2024-02-08T11:32:20.065Z,5.98
2024-02-08T11:34:56.201Z,5.95
2024-02-08T11:37:39.763Z,5.93
2024-02-08T11:40:20.917Z,5.88
2024-02-08T11:42:53.424Z,5.86
2024-02-08T11:45:28.858Z,5.84
2024-02-08T11:48:05.629Z,5.78
2024-02-08T11:50:38.518Z,5.70
2024-02-08T11:53:10.827Z,5.66
2024-02-08T11:55:46.340Z,5.68
2024-02-08T11:58:18.937Z,5.65
2024-02-08T12:00:54.506Z,5.59
2024-02-08T12:03:28.080Z,5.58
2024-02-08T12:06:00.064Z,5.56
2024-02-08T12:08:37.742Z,5.56
2024-02-08T12:11:14.984Z,5.56
2024-02-08T12:13:46.944Z,5.54
2024-02-08T12:16:19.169Z,5.49
2024-02-08T12:19:00.766Z,5.45
2024-02-08T12:21:32.642Z,5.42
2024-02-08T12:24:04.488Z,5.37
2024-02-08T12:26:39.846Z,5.32
2024-02-08T12:29:18.063Z,5.27
2024-02-08T12:31:51.482Z,5.21
2024-02-08T12:34:32.647Z,5.18
2024-02-08T12:37:07.978Z,5.14
2024-02-08T12:39:44.370Z,5.10
2024-02-08T12:42:19.705Z,5.00
2024-02-08T12:44:51.889Z,4.92
2024-02-08T12:47:24.599Z,4.84
2024-02-08T12:50:02.409Z,4.79
2024-02-08T12:52:42.174Z,4.76
2024-02-08T12:55:20.584Z,4.75
2024-02-08T12:57:59.835Z,4.71
2024-02-08T13:00:34.551Z,4.66
2024-02-08T13:03:08.278Z,4.64
2024-02-08T13:05:42.174Z,4.61
2024-02-08T13:08:22.231Z,4.59
2024-02-08T13:11:00.061Z,4.55
2024-02-08T13:13:33.146Z,4.53
2024-02-08T13:16:11.138Z,4.49
2024-02-08T13:18:44.633Z,4.50
2024-02-08T13:21:16.850Z,4.52
2024-02-08T13:23:48.639Z,4.47
2024-02-08T13:26:29.543Z,4.43
2024-02-08T13:29:04.921Z,4.45
2024-02-08T13:31:39.352Z,4.48
2024-02-08T13:34:11.702Z,4.50
2024-02-08T13:36:45.113Z,4.49
2024-02-08T13:39:17.604Z,4.51
2024-02-08T13:41:49.385Z,4.47
2024-02-08T13:44:22.223Z,4.43
2024-02-08T13:46:54.170Z,4.43
2024-02-08T13:49:26.326Z,4.45
2024-02-08T13:51:58.473Z,4.44
2024-02-08T13:54:32.714Z,4.46
2024-02-08T13:57:13.676Z,4.47
2024-02-08T13:59:47.367Z,4.45
2024-02-08T14:02:20.372Z,4.42
2024-02-08T14:04:56.495Z,4.40
2024-02-08T14:07:30.120Z,4.40
2024-02-08T14:10:02.587Z,4.40
2024-02-08T14:12:35.127Z,4.38
2024-02-08T14:15:09.222Z,4.34
2024-02-08T14:17:41.702Z,4.31
2024-02-08T14:20:27.527Z,4.29
2024-02-08T14:23:02.084Z,4.29
2024-02-08T14:25:49.790Z,4.24
2024-02-08T14:28:21.592Z,4.20
2024-02-08T14:30:54.047Z,4.18
2024-02-08T14:33:26.203Z,4.19
2024-02-08T14:35:58.412Z,4.20
2024-02-08T14:38:33.735Z,4.20
2024-02-08T14:41:07.439Z,4.20
2024-02-08T14:43:42.929Z,4.19
2024-02-08T14:46:18.997Z,4.17
2024-02-08T14:48:52.920Z,4.13
2024-02-08T14:51:31.571Z,4.13
2024-02-08T14:54:03.502Z,4.15
2024-02-08T14:56:36.483Z,4.16
2024-02-08T14:59:14.639Z,4.16
2024-02-08T15:01:54.017Z,4.16
2024-02-08T15:04:27.374Z,4.16
2024-02-08T15:07:08.341Z,4.17
2024-02-08T15:09:50.516Z,4.16
2024-02-08T15:12:32.339Z,4.16
2024-02-08T15:15:07.382Z,4.14
2024-02-08T15:17:45.126Z,4.15
2024-02-08T15:20:35.154Z,4.17
2024-02-08T15:23:32.688Z,4.20
2024-02-08T15:26:14.141Z,4.22
2024-02-08T15:28:56.906Z,4.26
2024-02-08T15:31:48.506Z,4.29
2024-02-08T15:34:41.359Z,4.30
2024-02-08T15:37:21.360Z,4.25
2024-02-08T15:40:11.048Z,4.23
2024-02-08T15:42:44.825Z,4.17
2024-02-08T15:45:16.864Z,4.15
2024-02-08T15:48:02.659Z,4.14
2024-02-08T15:50:38.075Z,4.17
2024-02-08T15:53:17.711Z,4.18
2024-02-08T15:55:57.489Z,4.10
2024-02-08T15:58:30.765Z,4.04
2024-02-08T16:01:29.173Z,4.02
2024-02-08T16:04:01.723Z,4.02
2024-02-08T16:06:55.480Z,4.01
2024-02-08T16:09:33.750Z,4.00
2024-02-08T16:12:23.866Z,3.99
2024-02-08T16:15:01.737Z,3.96
2024-02-08T16:17:59.225Z,3.94
2024-02-08T16:20:39.425Z,3.87
2024-02-08T16:23:15.726Z,3.85
2024-02-08T16:25:49.288Z,3.83
2024-02-08T16:28:24.015Z,3.80
2024-02-08T16:31:08.327Z,3.78
2024-02-08T16:33:49.242Z,3.77
2024-02-08T16:36:36.535Z,3.74
2024-02-08T16:39:23.273Z,3.68
2024-02-08T16:42:01.423Z,3.68
2024-02-08T16:44:39.412Z,3.68
2024-02-08T16:47:29.065Z,3.67
2024-02-08T16:50:17.928Z,3.70
2024-02-08T16:52:59.362Z,3.77
2024-02-08T16:55:38.957Z,3.80
2024-02-08T16:58:29.558Z,3.80
2024-02-08T17:01:07.012Z,3.84
2024-02-08T17:04:01.609Z,3.89
2024-02-08T17:06:44.783Z,3.93
2024-02-08T17:09:25.429Z,3.97
2024-02-08T17:12:06.586Z,4.00
2024-02-08T17:14:44.299Z,4.03
2024-02-08T17:17:36.494Z,4.03
2024-02-08T17:20:24.263Z,4.04
2024-02-08T17:23:06.819Z,4.05
2024-02-08T17:25:44.367Z,4.07
2024-02-08T17:28:16.715Z,4.07
2024-02-08T17:31:06.105Z,4.03
2024-02-08T17:33:48.073Z,3.95
2024-02-08T17:36:27.484Z,3.89
2024-02-08T17:39:00.899Z,3.88
2024-02-08T17:41:39.228Z,3.88
2024-02-08T17:44:17.275Z,3.91
2024-02-08T17:46:54.284Z,3.94
2024-02-08T17:49:26.468Z,3.92
2024-02-08T17:52:00.866Z,3.92
2024-02-08T17:54:45.809Z,3.94
2024-02-08T17:57:25.183Z,3.99
2024-02-08T18:00:00.853Z,4.02
2024-02-08T18:02:37.479Z,4.06
2024-02-08T18:05:15.935Z,4.08
2024-02-08T18:07:48.501Z,4.10
2024-02-08T18:10:22.066Z,4.11
2024-02-08T18:12:56.696Z,4.13
2024-02-08T18:15:35.988Z,4.13
2024-02-08T18:18:08.634Z,4.12
2024-02-08T18:20:42.845Z,4.08
2024-02-08T18:23:20.190Z,4.10
2024-02-08T18:25:53.255Z,4.13
2024-02-08T18:28:26.832Z,4.16
2024-02-08T18:30:59.126Z,4.18
2024-02-08T18:33:33.814Z,4.19
2024-02-08T18:36:09.120Z,4.17
2024-02-08T18:38:41.205Z,4.10
2024-02-08T18:41:13.959Z,4.08
2024-02-08T18:43:48.786Z,4.05
2024-02-08T18:46:25.501Z,4.06
2024-02-08T18:49:02.810Z,4.08
2024-02-08T18:51:35.055Z,4.12
2024-02-08T18:54:09.611Z,4.12
2024-02-08T18:56:45.632Z,4.08
2024-02-08T18:59:18.547Z,4.09
2024-02-08T19:01:57.359Z,4.10
2024-02-08T19:04:33.417Z,4.10
2024-02-08T19:07:06.692Z,4.12
2024-02-08T19:09:40.817Z,4.15
2024-02-08T19:12:15.224Z,4.18
2024-02-08T19:14:48.982Z,4.21
2024-02-08T19:17:22.749Z,4.24
2024-02-08T19:19:54.977Z,4.26
2024-02-08T19:22:29.074Z,4.27
2024-02-08T19:25:01.303Z,4.30
2024-02-08T19:27:35.039Z,4.31
2024-02-08T19:30:09.479Z,4.32
2024-02-08T19:32:41.377Z,4.33
2024-02-08T19:35:20.790Z,4.34
2024-02-08T19:37:52.915Z,4.36
2024-02-08T19:40:25.550Z,4.38
2024-02-08T19:42:57.903Z,4.39
2024-02-08T19:45:32.598Z,4.41
2024-02-08T19:48:18.826Z,4.38
2024-02-08T19:50:51.003Z,4.35
2024-02-08T19:53:29.545Z,4.34
2024-02-08T19:56:08.814Z,4.35
2024-02-08T19:58:40.932Z,4.36
2024-02-08T20:01:17.737Z,4.38
2024-02-08T20:03:53.524Z,4.41
2024-02-08T20:06:28.185Z,4.43
2024-02-08T20:09:01.074Z,4.41
2024-02-08T20:11:32.907Z,4.42
2024-02-08T20:14:07.678Z,4.44
2024-02-08T20:16:43.050Z,4.42
2024-02-08T20:19:16.013Z,4.37
2024-02-08T20:21:51.165Z,4.33
2024-02-08T20:24:24.585Z,4.31
2024-02-08T20:26:56.397Z,4.31
2024-02-08T20:29:29.529Z,4.32
2024-02-08T20:32:01.320Z,4.34
2024-02-08T20:34:34.528Z,4.33
2024-02-08T20:37:08.555Z,4.34
2024-02-08T20:39:42.231Z,4.33
2024-02-08T20:42:14.326Z,4.32
2024-02-08T20:44:46.118Z,4.29
2024-02-08T20:47:20.809Z,4.30
2024-02-08T20:49:57.198Z,4.31
2024-02-08T20:52:29.567Z,4.30
2024-02-08T20:55:01.943Z,4.31
2024-02-08T20:57:35.137Z,4.31
2024-02-08T21:00:09.248Z,4.32
2024-02-08T21:02:42.033Z,4.34
2024-02-08T21:05:13.944Z,4.36
2024-02-08T21:07:48.117Z,4.37
2024-02-08T21:10:26.755Z,4.38
2024-02-08T21:13:00.819Z,4.38
2024-02-08T21:15:32.685Z,4.39
2024-02-08T21:18:07.934Z,4.39
2024-02-08T21:20:39.733Z,4.39
2024-02-08T21:23:11.756Z,4.40
2024-02-08T21:25:43.620Z,4.41
2024-02-08T21:28:18.951Z,4.44
2024-02-08T21:30:50.954Z,4.44
2024-02-08T21:33:23.454Z,4.44
2024-02-08T21:36:01.178Z,4.44
2024-02-08T21:38:34.821Z,4.43
2024-02-08T21:41:07.438Z,4.38
2024-02-08T21:43:39.316Z,4.32
2024-02-08T21:46:12.931Z,4.29
2024-02-08T21:48:44.846Z,4.22
2024-02-08T21:51:17.889Z,4.16
2024-02-08T21:53:49.805Z,4.10
2024-02-08T21:56:22.254Z,3.99
2024-02-08T21:58:54.028Z,3.96
2024-02-08T22:01:37.424Z,3.95
2024-02-08T22:04:10.277Z,3.91
2024-02-08T22:06:42.364Z,3.86
2024-02-08T22:09:14.929Z,3.84
2024-02-08T22:11:54.801Z,3.82
2024-02-08T22:14:28.556Z,3.82
2024-02-08T22:17:09.408Z,3.81
2024-02-08T22:19:44.935Z,3.82
2024-02-08T22:22:17.391Z,3.82
2024-02-08T22:24:49.303Z,3.83
2024-02-08T22:27:21.267Z,3.82
2024-02-08T22:29:53.259Z,3.81
2024-02-08T22:32:26.251Z,3.79
2024-02-08T22:34:58.199Z,3.79
2024-02-08T22:37:30.184Z,3.81
2024-02-08T22:40:04.971Z,3.85
2024-02-08T22:42:38.145Z,3.88
2024-02-08T22:45:11.093Z,3.91
2024-02-08T22:47:45.366Z,3.94
2024-02-08T22:50:18.591Z,4.00
2024-02-08T22:52:53.629Z,4.05
2024-02-08T22:55:25.870Z,4.11
2024-02-08T22:57:57.862Z,4.15
2024-02-08T23:00:49.028Z,4.18
2024-02-08T23:03:25.541Z,4.21
2024-02-08T23:05:59.614Z,4.24
2024-02-08T23:08:31.637Z,4.27
2024-02-08T23:11:03.557Z,4.29
2024-02-08T23:13:35.523Z,4.31
2024-02-08T23:16:09.397Z,4.34
2024-02-08T23:18:42.863Z,4.38
2024-02-08T23:21:14.870Z,4.40
2024-02-08T23:23:47.023Z,4.41
2024-02-08T23:26:19.531Z,4.42
2024-02-08T23:28:54.207Z,4.44
2024-02-08T23:31:29.179Z,4.46
2024-02-08T23:34:04.078Z,4.48
2024-02-08T23:36:36.182Z,4.50
2024-02-08T23:39:09.193Z,4.52
2024-02-08T23:41:41.613Z,4.53
2024-02-08T23:44:13.450Z,4.53
2024-02-08T23:46:45.390Z,4.51
2024-02-08T23:49:17.272Z,4.48
2024-02-08T23:51:49.188Z,4.49
2024-02-08T23:54:23.547Z,4.50
2024-02-08T23:56:56.168Z,4.49
2024-02-08T23:59:29.730Z,4.46
